createdAt,value
2022-08-22T00:00:15.625Z,97369.41
2022-08-22T00:02:48.064Z,97327.56
2022-08-22T00:02:56.361Z,97332.69
2022-08-22T00:02:57.557Z,97365.75
2022-08-22T00:02:57.904Z,97365.59
2022-08-22T00:02:58.169Z,97398.38
2022-08-22T00:02:59.808Z,97349.84
2022-08-22T00:03:02.384Z,97372.91
2022-08-22T00:06:06.350Z,97374.25
2022-08-22T00:08:45.138Z,97373.41
2022-08-22T00:11:25.164Z,97363.09
2022-08-22T00:14:13.603Z,97358.69
2022-08-22T00:16:53.433Z,97362.06
2022-08-22T00:19:42.143Z,97366.69
2022-08-22T00:22:18.609Z,97359.56
2022-08-22T00:24:54.101Z,97354.69
2022-08-22T00:27:34.299Z,97360.38
2022-08-22T00:30:10.063Z,97364.38
2022-08-22T00:33:02.519Z,97356.38
2022-08-22T00:35:41.709Z,97362.91
2022-08-22T00:38:27.163Z,97355.31
2022-08-22T00:41:07.155Z,97353.88
2022-08-22T00:43:46.171Z,97355.31
2022-08-22T00:46:41.325Z,97353.81
2022-08-22T00:49:25.464Z,97358.88
2022-08-22T00:52:31.332Z,97356.34
2022-08-22T00:55:22.964Z,97351.09
2022-08-22T00:58:25.421Z,97357.84
2022-08-22T01:01:11.760Z,97362.47
2022-08-22T01:03:44.842Z,97360.97
2022-08-22T01:06:31.471Z,97360.75
2022-08-22T01:09:29.512Z,97358.22
2022-08-22T01:12:26.589Z,97361.59
2022-08-22T01:15:02.047Z,97357.19
2022-08-22T01:17:57.110Z,97357.56
2022-08-22T01:20:56.580Z,97350.22
2022-08-22T01:23:44.963Z,97352.53
2022-08-22T01:26:39.112Z,97347.91
2022-08-22T01:29:46.131Z,97357.53
2022-08-22T01:32:31.359Z,97356.28
2022-08-22T01:35:19.613Z,97349.13
2022-08-22T01:38:08.565Z,97343.25
2022-08-22T01:40:59.644Z,97349.75
2022-08-22T01:44:07.749Z,97340.28
2022-08-22T01:46:42.541Z,97337.13
2022-08-22T01:49:31.783Z,97341.97
2022-08-22T01:52:13.730Z,97340.50
2022-08-22T01:54:51.123Z,97343.03
2022-08-22T01:57:19.401Z,97339.44
2022-08-22T01:59:50.151Z,97342.56
2022-08-22T02:02:23.269Z,97332.91
2022-08-22T02:05:11.811Z,97327.22
2022-08-22T02:08:06.262Z,97330.16
2022-08-22T02:10:54.106Z,97324.50
2022-08-22T02:14:14.891Z,97332.25
2022-08-22T02:16:48.225Z,97328.66
2022-08-22T02:19:15.264Z,97339.81
2022-08-22T02:21:56.960Z,97329.94
2022-08-22T02:24:45.368Z,97332.91
2022-08-22T02:27:20.255Z,97342.97
2022-08-22T02:29:59.293Z,97334.59
2022-08-22T02:32:41.175Z,97332.72
2022-08-22T02:35:16.646Z,97329.97
2022-08-22T02:37:58.027Z,97332.09
2022-08-22T02:40:42.020Z,97335.84
2022-08-22T02:43:24.261Z,97330.38
2022-08-22T02:46:13.414Z,97332.88
2022-08-22T02:49:04.702Z,97322.81
2022-08-22T02:51:45.484Z,97330.34
2022-08-22T02:54:31.343Z,97327.84
2022-08-22T02:57:06.141Z,97325.72
2022-08-22T03:00:32.608Z,97333.31
2022-08-22T03:03:16.744Z,97335.59
2022-08-22T03:05:43.740Z,97332.03
2022-08-22T03:08:47.423Z,97338.75
2022-08-22T03:11:35.681Z,97331.56
2022-08-22T03:14:28.397Z,97351.72
2022-08-22T03:17:10.992Z,97347.72
2022-08-22T03:19:51.638Z,97353.59
2022-08-22T03:22:43.717Z,97352.50
2022-08-22T03:25:20.308Z,97353.56
2022-08-22T03:28:21.781Z,97359.03
2022-08-22T03:30:51.519Z,97356.69
2022-08-22T03:33:28.115Z,97352.94
2022-08-22T03:36:03.031Z,97360.06
2022-08-22T03:38:33.008Z,97362.16
2022-08-22T03:41:42.245Z,97358.16
2022-08-22T03:44:18.300Z,97362.34
2022-08-22T03:47:12.937Z,97366.78
2022-08-22T03:49:45.881Z,97366.34
2022-08-22T03:52:31.347Z,97368.88
2022-08-22T03:55:23.359Z,97368.00
2022-08-22T03:58:27.848Z,97370.47
2022-08-22T04:01:22.940Z,97375.88
2022-08-22T04:04:19.099Z,97374.56
2022-08-22T04:07:28.218Z,97369.88
2022-08-22T04:10:25.605Z,97377.44
2022-08-22T04:13:13.996Z,97380.41
2022-08-22T04:15:57.642Z,97382.69
2022-08-22T04:18:36.850Z,97387.75
2022-08-22T04:21:32.752Z,97385.44
2022-08-22T04:24:52.215Z,97396.78
2022-08-22T04:27:25.890Z,97396.19
2022-08-22T04:30:06.006Z,97405.25
2022-08-22T04:32:53.059Z,97399.34
2022-08-22T04:35:37.482Z,97403.16
2022-08-22T04:38:17.119Z,97399.63
2022-08-22T04:41:04.511Z,97401.16
2022-08-22T04:44:01.382Z,97408.31
2022-08-22T04:46:41.906Z,97402.31
2022-08-22T04:49:22.839Z,97394.81
2022-08-22T04:52:12.984Z,97408.91
2022-08-22T04:55:17.758Z,97411.69
2022-08-22T04:57:53.489Z,97416.09
2022-08-22T05:00:20.701Z,97421.56
2022-08-22T05:02:55.295Z,97419.06
2022-08-22T05:05:27.090Z,97419.44
2022-08-22T05:07:58.851Z,97410.63
2022-08-22T05:10:28.764Z,97410.19
2022-08-22T05:13:02.375Z,97410.19
2022-08-22T05:15:44.274Z,97411.69
2022-08-22T05:18:23.264Z,97419.06
2022-08-22T05:20:57.747Z,97407.94
2022-08-22T05:23:29.980Z,97407.75
2022-08-22T05:26:06.026Z,97408.16
2022-08-22T05:29:02.433Z,97415.31
2022-08-22T05:31:35.277Z,97412.63
2022-08-22T05:34:08.041Z,97413.28
2022-08-22T05:36:42.223Z,97408.66
2022-08-22T05:39:14.581Z,97399.00
2022-08-22T05:41:42.931Z,97399.22
2022-08-22T05:44:21.741Z,97398.22
2022-08-22T05:47:01.882Z,97404.09
2022-08-22T05:49:55.187Z,97400.97
2022-08-22T05:52:45.355Z,97402.00
2022-08-22T05:55:21.166Z,97405.97
2022-08-22T05:57:54.742Z,97402.59
2022-08-22T06:00:25.938Z,97401.97
2022-08-22T06:03:33.797Z,97399.44
2022-08-22T06:06:09.814Z,97401.91
2022-08-22T06:08:41.980Z,97395.97
2022-08-22T06:11:24.014Z,97392.53
2022-08-22T06:14:01.242Z,97399.28
2022-08-22T06:16:56.821Z,97397.41
2022-08-22T06:19:24.510Z,97391.69
2022-08-22T06:21:54.568Z,97394.31
2022-08-22T06:24:27.547Z,97405.41
2022-08-22T06:26:59.921Z,97397.31
2022-08-22T06:29:36.345Z,97402.91
2022-08-22T06:32:12.395Z,97404.06
2022-08-22T06:34:43.056Z,97414.94
2022-08-22T06:37:18.644Z,97416.47
2022-08-22T06:39:50.988Z,97413.59
2022-08-22T06:42:26.128Z,97419.03
2022-08-22T06:45:00.435Z,97420.19
2022-08-22T06:47:43.565Z,97413.41
2022-08-22T06:50:33.446Z,97402.97
2022-08-22T06:53:26.961Z,97404.28
2022-08-22T06:55:57.846Z,97410.06
2022-08-22T06:58:34.523Z,97405.72
2022-08-22T07:01:22.590Z,97405.56
2022-08-22T07:04:03.367Z,97407.25
2022-08-22T07:06:38.525Z,97419.97
2022-08-22T07:09:07.203Z,97425.03
2022-08-22T07:11:39.682Z,97424.53
2022-08-22T07:14:17.143Z,97421.56
2022-08-22T07:17:02.538Z,97421.19
2022-08-22T07:19:39.080Z,97428.50
2022-08-22T07:22:21.664Z,97429.00
2022-08-22T07:24:53.700Z,97426.38
2022-08-22T07:27:32.704Z,97431.66
2022-08-22T07:30:14.175Z,97426.16
2022-08-22T07:32:51.253Z,97427.88
2022-08-22T07:35:21.415Z,97423.53
2022-08-22T07:38:15.112Z,97431.19
2022-08-22T07:40:48.443Z,97424.59
2022-08-22T07:43:39.919Z,97435.00
2022-08-22T07:46:27.991Z,97424.59
2022-08-22T07:49:09.002Z,97431.53
2022-08-22T07:51:44.467Z,97432.63
2022-08-22T07:54:21.827Z,97433.81
2022-08-22T07:56:58.079Z,97439.28
2022-08-22T07:59:28.289Z,97438.47
2022-08-22T08:01:59.461Z,97432.19
2022-08-22T08:04:36.880Z,97428.19
2022-08-22T08:07:11.085Z,97433.19
2022-08-22T08:09:44.766Z,97428.63
2022-08-22T08:12:15.100Z,97422.34
2022-08-22T08:14:45.591Z,97421.75
2022-08-22T08:17:15.354Z,97423.59
2022-08-22T08:19:44.310Z,97417.34
2022-08-22T08:22:26.712Z,97424.47
2022-08-22T08:24:58.543Z,97425.38
2022-08-22T08:27:50.316Z,97422.41
2022-08-22T08:30:22.938Z,97406.69
2022-08-22T08:33:24.308Z,97407.84
2022-08-22T08:36:03.351Z,97410.34
2022-08-22T08:38:48.673Z,97408.16
2022-08-22T08:41:54.546Z,97412.59
2022-08-22T08:44:52.774Z,97407.97
2022-08-22T08:47:31.119Z,97401.66
2022-08-22T08:50:36.074Z,97397.19
2022-08-22T08:53:26.126Z,97398.56
2022-08-22T08:56:26.315Z,97393.94
2022-08-22T08:59:31.504Z,97393.13
2022-08-22T09:02:20.341Z,97385.75
2022-08-22T09:05:12.163Z,97391.56
2022-08-22T09:08:12.374Z,97392.66
2022-08-22T09:11:01.217Z,97394.44
2022-08-22T09:13:49.346Z,97392.41
2022-08-22T09:16:51.905Z,97386.22
2022-08-22T09:19:56.722Z,97393.56
2022-08-22T09:22:59.133Z,97389.41
2022-08-22T09:25:43.173Z,97391.56
2022-08-22T09:28:19.785Z,97387.66
2022-08-22T09:31:17.103Z,97380.69
2022-08-22T09:34:09.265Z,97379.94
2022-08-22T09:37:08.474Z,97376.53
2022-08-22T09:40:08.475Z,97378.59
2022-08-22T09:43:04.835Z,97384.53
2022-08-22T09:45:40.557Z,97390.28
2022-08-22T09:48:31.961Z,97378.75
2022-08-22T09:51:32.146Z,97366.66
2022-08-22T09:54:14.195Z,97371.88
2022-08-22T09:56:47.365Z,97361.38
2022-08-22T09:59:33.666Z,97364.16
2022-08-22T10:02:36.072Z,97366.91
2022-08-22T10:05:35.255Z,97358.31
2022-08-22T10:08:11.474Z,97351.38
2022-08-22T10:10:47.377Z,97352.28
2022-08-22T10:13:32.416Z,97341.09
2022-08-22T10:16:19.960Z,97339.25
2022-08-22T10:19:05.145Z,97336.72
2022-08-22T10:21:44.807Z,97333.50
2022-08-22T10:24:51.607Z,97327.94
2022-08-22T10:27:36.975Z,97315.53
2022-08-22T10:30:16.299Z,97317.88
2022-08-22T10:33:00.761Z,97313.19
2022-08-22T10:35:57.600Z,97305.94
2022-08-22T10:38:44.003Z,97297.94
2022-08-22T10:41:40.894Z,97302.16
2022-08-22T10:44:21.790Z,97306.94
2022-08-22T10:47:08.745Z,97303.72
2022-08-22T10:49:55.806Z,97300.03
2022-08-22T10:52:31.459Z,97291.69
2022-08-22T10:55:17.662Z,97293.91
2022-08-22T10:57:53.446Z,97285.00
2022-08-22T11:00:49.811Z,97284.19
2022-08-22T11:03:26.367Z,97289.06
2022-08-22T11:06:03.638Z,97288.66
2022-08-22T11:08:39.654Z,97286.00
2022-08-22T11:11:07.565Z,97286.03
2022-08-22T11:13:37.490Z,97280.06
2022-08-22T11:16:36.726Z,97287.97
2022-08-22T11:19:14.928Z,97278.00
2022-08-22T11:21:54.545Z,97277.97
2022-08-22T11:24:55.743Z,97264.25
2022-08-22T11:27:54.425Z,97264.56
2022-08-22T11:30:44.179Z,97261.09
2022-08-22T11:33:39.091Z,97262.03
2022-08-22T11:36:37.481Z,97257.44
2022-08-22T11:39:30.821Z,97274.13
2022-08-22T11:42:08.687Z,97258.44
2022-08-22T11:44:58.506Z,97255.75
2022-08-22T11:47:30.594Z,97253.53
2022-08-22T11:50:15.294Z,97250.94
2022-08-22T11:52:57.578Z,97248.44
2022-08-22T11:55:56.790Z,97247.47
2022-08-22T11:58:38.942Z,97243.84
2022-08-22T12:01:18.385Z,97243.25
2022-08-22T12:04:09.826Z,97239.06
2022-08-22T12:06:41.936Z,97232.81
2022-08-22T12:09:47.652Z,97238.00
2022-08-22T12:12:36.464Z,97210.59
2022-08-22T12:15:12.383Z,97216.34
2022-08-22T12:18:01.811Z,97205.63
2022-08-22T12:20:48.117Z,97212.88
2022-08-22T12:23:57.922Z,97217.66
2022-08-22T12:26:54.829Z,97211.81
2022-08-22T12:30:13.788Z,97213.63
2022-08-22T12:32:59.857Z,97202.88
2022-08-22T12:35:35.557Z,97187.88
2022-08-22T12:38:28.503Z,97181.38
2022-08-22T12:40:59.615Z,97173.44
2022-08-22T12:43:49.554Z,97162.84
2022-08-22T12:46:34.697Z,97177.47
2022-08-22T12:49:11.647Z,97161.44
2022-08-22T12:51:51.907Z,97165.78
2022-08-22T12:55:08.004Z,97165.66
2022-08-22T12:57:59.586Z,97163.63
2022-08-22T13:00:32.954Z,97166.50
2022-08-22T13:03:04.763Z,97161.75
2022-08-22T13:05:40.455Z,97164.31
2022-08-22T13:08:26.960Z,97163.81
2022-08-22T13:11:22.617Z,97162.19
2022-08-22T13:13:57.360Z,97157.16
2022-08-22T13:16:33.995Z,97149.81
2022-08-22T13:19:13.455Z,97150.53
2022-08-22T13:21:48.306Z,97152.00
2022-08-22T13:24:22.845Z,97152.28
2022-08-22T13:27:14.940Z,97149.78
2022-08-22T13:29:51.491Z,97147.81
2022-08-22T13:32:26.370Z,97135.16
2022-08-22T13:34:57.988Z,97143.47
2022-08-22T13:37:44.847Z,97146.41
2022-08-22T13:40:22.471Z,97147.25
2022-08-22T13:42:54.617Z,97147.16
2022-08-22T13:45:28.830Z,97141.59
2022-08-22T13:48:12.966Z,97149.47
2022-08-22T13:51:09.929Z,97135.38
2022-08-22T13:54:00.513Z,97143.66
2022-08-22T13:57:06.515Z,97138.56
2022-08-22T13:59:57.764Z,97135.34
2022-08-22T14:02:49.740Z,97147.84
2022-08-22T14:05:25.477Z,97148.81
2022-08-22T14:08:18.485Z,97162.19
2022-08-22T14:11:03.546Z,97155.03
2022-08-22T14:13:59.461Z,97152.41
2022-08-22T14:16:33.558Z,97155.22
2022-08-22T14:19:07.260Z,97157.44
2022-08-22T14:21:46.274Z,97161.38
2022-08-22T14:24:25.855Z,97155.34
2022-08-22T14:27:05.184Z,97153.97
2022-08-22T14:29:51.218Z,97150.31
2022-08-22T14:32:22.747Z,97149.41
2022-08-22T14:35:29.339Z,97144.38
2022-08-22T14:38:30.096Z,97130.19
2022-08-22T14:41:10.749Z,97136.72
2022-08-22T14:43:51.609Z,97132.31
2022-08-22T14:46:26.461Z,97123.75
2022-08-22T14:49:18.707Z,97137.34
2022-08-22T14:52:03.939Z,97144.16
2022-08-22T14:54:32.651Z,97134.09
2022-08-22T14:57:02.539Z,97147.44
2022-08-22T14:59:32.906Z,97150.69
2022-08-22T15:02:14.605Z,97150.94
2022-08-22T15:04:48.388Z,97166.47
2022-08-22T15:07:31.227Z,97171.53
2022-08-22T15:10:08.175Z,97179.38
2022-08-22T15:12:47.727Z,97180.13
2022-08-22T15:15:31.018Z,97185.09
2022-08-22T15:17:59.667Z,97189.03
2022-08-22T15:20:36.592Z,97188.81
2022-08-22T15:23:23.386Z,97188.97
2022-08-22T15:26:07.557Z,97182.59
2022-08-22T15:28:53.087Z,97187.47
2022-08-22T15:31:22.784Z,97174.72
2022-08-22T15:33:51.252Z,97186.41
2022-08-22T15:36:24.482Z,97187.69
2022-08-22T15:39:16.741Z,97193.41
2022-08-22T15:41:49.446Z,97197.06
2022-08-22T15:44:33.075Z,97203.16
2022-08-22T15:47:10.942Z,97208.91
2022-08-22T15:49:51.107Z,97205.41
2022-08-22T15:52:31.431Z,97211.59
2022-08-22T15:55:24.842Z,97209.91
2022-08-22T15:58:02.508Z,97225.06
2022-08-22T16:00:36.130Z,97230.03
2022-08-22T16:03:27.243Z,97222.91
2022-08-22T16:06:07.519Z,97222.50
2022-08-22T16:08:51.823Z,97226.50
2022-08-22T16:11:33.577Z,97238.16
2022-08-22T16:14:36.027Z,97231.84
2022-08-22T16:17:25.891Z,97243.38
2022-08-22T16:20:19.530Z,97247.69
2022-08-22T16:22:59.376Z,97257.19
2022-08-22T16:25:44.922Z,97257.78
2022-08-22T16:28:57.410Z,97264.25
2022-08-22T16:31:27.790Z,97269.28
2022-08-22T16:34:16.858Z,97288.78
2022-08-22T16:36:48.663Z,97272.41
2022-08-22T16:39:21.522Z,97276.59
2022-08-22T16:41:51.835Z,97268.59
2022-08-22T16:44:30.822Z,97263.34
2022-08-22T16:47:29.780Z,97264.41
2022-08-22T16:50:23.181Z,97265.47
2022-08-22T16:53:10.745Z,97277.25
2022-08-22T16:55:49.287Z,97287.88
2022-08-22T16:58:55.886Z,97291.38
2022-08-22T17:01:30.169Z,97307.00
2022-08-22T17:04:17.930Z,97307.91
2022-08-22T17:07:02.281Z,97300.38
2022-08-22T17:09:54.017Z,97299.66
2022-08-22T17:12:45.760Z,97317.84
2022-08-22T17:15:31.408Z,97318.50
2022-08-22T17:18:16.877Z,97328.88
2022-08-22T17:21:06.162Z,97331.72
2022-08-22T17:23:46.597Z,97344.09
2022-08-22T17:26:44.213Z,97346.44
2022-08-22T17:29:38.391Z,97344.03
2022-08-22T17:32:32.882Z,97350.81
2022-08-22T17:35:07.675Z,97347.91
2022-08-22T17:37:58.299Z,97355.91
2022-08-22T17:40:57.652Z,97361.09
2022-08-22T17:43:32.807Z,97362.41
2022-08-22T17:46:49.149Z,97374.97
2022-08-22T17:49:40.850Z,97381.72
2022-08-22T17:52:16.040Z,97387.53
2022-08-22T17:54:56.764Z,97389.78
2022-08-22T17:57:26.419Z,97399.13
2022-08-22T18:00:12.347Z,97399.19
2022-08-22T18:02:50.215Z,97400.63
2022-08-22T18:05:46.053Z,97399.63
2022-08-22T18:11:24.792Z,97402.41
2022-08-22T18:14:04.981Z,97401.13
2022-08-22T18:16:44.065Z,97403.22
2022-08-22T18:19:35.737Z,97401.84
2022-08-22T18:22:34.251Z,97406.28
2022-08-22T18:25:33.393Z,97405.66
2022-08-22T18:28:09.945Z,97398.78
2022-08-22T18:30:56.215Z,97405.13
2022-08-22T18:33:36.232Z,97412.97
2022-08-22T18:36:15.325Z,97421.22
2022-08-22T18:39:00.078Z,97433.41
2022-08-22T18:41:39.842Z,97446.88
2022-08-22T18:44:18.560Z,97463.31
2022-08-22T18:46:51.571Z,97488.16
2022-08-22T18:49:22.268Z,97488.22
2022-08-22T18:52:17.287Z,97492.84
2022-08-22T18:55:01.059Z,97504.22
2022-08-22T18:57:57.952Z,97509.28
2022-08-22T19:01:03.012Z,97504.63
2022-08-22T19:03:36.356Z,97521.25
2022-08-22T19:06:38.268Z,97524.84
2022-08-22T19:09:11.207Z,97517.03
2022-08-22T19:11:51.850Z,97512.63
2022-08-22T19:14:27.776Z,97504.22
2022-08-22T19:17:19.600Z,97511.34
2022-08-22T19:20:25.097Z,97506.09
2022-08-22T19:23:32.433Z,97512.59
2022-08-22T19:26:24.162Z,97520.81
2022-08-22T19:29:18.109Z,97525.22
2022-08-22T19:32:00.432Z,97541.63
2022-08-22T19:34:32.853Z,97533.41
2022-08-22T19:37:31.011Z,97540.31
2022-08-22T19:40:11.084Z,97542.19
2022-08-22T19:42:41.646Z,97542.81
2022-08-22T19:45:25.819Z,97565.50
2022-08-22T19:47:58.249Z,97548.50
2022-08-22T19:50:36.805Z,97549.53
2022-08-22T19:53:09.907Z,97557.03
2022-08-22T19:55:36.924Z,97560.00
2022-08-22T19:58:13.131Z,97549.91
2022-08-22T20:00:59.970Z,97545.06
2022-08-22T20:03:41.525Z,97553.28
2022-08-22T20:06:40.847Z,97544.66
2022-08-22T20:09:34.517Z,97546.81
2022-08-22T20:12:24.320Z,97557.28
2022-08-22T20:14:52.407Z,97552.91
2022-08-22T20:17:25.594Z,97550.19
2022-08-22T20:20:18.375Z,97531.41
2022-08-22T20:22:56.819Z,97538.75
2022-08-22T20:26:00.567Z,97541.91
2022-08-22T20:28:39.973Z,97545.03
2022-08-22T20:31:18.568Z,97550.28
2022-08-22T20:33:46.818Z,97543.53
2022-08-22T20:36:28.433Z,97546.91
2022-08-22T20:39:16.309Z,97553.16
2022-08-22T20:41:48.515Z,97549.84
2022-08-22T20:44:21.828Z,97549.41
2022-08-22T20:46:53.283Z,97545.59
2022-08-22T20:49:25.382Z,97547.03
2022-08-22T20:52:00.265Z,97545.97
2022-08-22T20:54:33.793Z,97550.59
2022-08-22T20:57:10.459Z,97537.75
2022-08-22T20:59:41.841Z,97535.63
2022-08-22T21:02:38.828Z,97532.47
2022-08-22T21:05:21.397Z,97520.47
2022-08-22T21:08:06.576Z,97528.41
2022-08-22T21:10:55.315Z,97518.91
2022-08-22T21:13:37.894Z,97515.97
2022-08-22T21:16:11.289Z,97516.38
2022-08-22T21:18:48.377Z,97517.00
2022-08-22T21:21:27.408Z,97511.09
2022-08-22T21:24:00.773Z,97506.44
2022-08-22T21:26:37.961Z,97499.69
2022-08-22T21:29:05.476Z,97499.50
2022-08-22T21:31:53.051Z,97503.31
2022-08-22T21:34:26.745Z,97485.03
2022-08-22T21:36:58.052Z,97491.13
2022-08-22T21:39:51.241Z,97485.59
2022-08-22T21:42:29.431Z,97482.41
2022-08-22T21:45:02.750Z,97492.03
2022-08-22T21:47:31.406Z,97497.88
2022-08-22T21:50:16.101Z,97488.63
2022-08-22T21:52:55.983Z,97486.34
2022-08-22T21:55:25.322Z,97490.09
2022-08-22T21:58:35.750Z,97483.63
2022-08-22T22:01:28.517Z,97479.63
2022-08-22T22:03:56.670Z,97482.97
2022-08-22T22:06:23.834Z,97488.63
2022-08-22T22:08:52.118Z,97488.81
2022-08-22T22:11:19.691Z,97486.25
2022-08-22T22:13:47.111Z,97488.31
2022-08-22T22:16:19.111Z,97484.56
2022-08-22T22:18:46.773Z,97492.09
2022-08-22T22:21:13.725Z,97489.97
2022-08-22T22:23:40.963Z,97478.22
2022-08-22T22:26:08.259Z,97487.63
2022-08-22T22:28:39.191Z,97481.91
2022-08-22T22:31:07.293Z,97485.69
2022-08-22T22:33:41.277Z,97486.16
2022-08-22T22:36:13.222Z,97475.63
2022-08-22T22:38:41.225Z,97484.00
2022-08-22T22:41:08.782Z,97480.44
2022-08-22T22:43:36.709Z,97477.91
2022-08-22T22:46:03.888Z,97482.72
2022-08-22T22:48:31.647Z,97490.06
2022-08-22T22:50:58.762Z,97485.91
2022-08-22T22:53:33.823Z,97492.19
2022-08-22T22:56:09.448Z,97487.97
2022-08-22T22:58:38.158Z,97492.97
2022-08-22T23:01:15.368Z,97491.34
2022-08-22T23:03:43.336Z,97488.63
2022-08-22T23:06:13.205Z,97494.53
2022-08-22T23:08:40.496Z,97485.31
2022-08-22T23:11:15.635Z,97500.69
2022-08-22T23:13:43.365Z,97487.50
2022-08-22T23:16:13.801Z,97488.13
2022-08-22T23:18:42.181Z,97489.81
2022-08-22T23:21:16.443Z,97491.06
2022-08-22T23:23:44.133Z,97487.81
2022-08-22T23:26:12.089Z,97487.19
2022-08-22T23:28:39.843Z,97479.44
2022-08-22T23:31:35.138Z,97482.41
2022-08-22T23:34:11.798Z,97485.78
2022-08-22T23:36:41.335Z,97487.69
2022-08-22T23:39:09.789Z,97494.59
2022-08-22T23:41:37.595Z,97502.13
2022-08-22T23:44:07.707Z,97498.53
2022-08-22T23:46:41.240Z,97510.50
2022-08-22T23:49:08.480Z,97500.28
2022-08-22T23:51:36.393Z,97512.22
2022-08-22T23:54:04.737Z,97507.22
2022-08-22T23:56:32.928Z,97498.84
2022-08-22T23:59:01.520Z,97503.41
